Time;durP1;ratioP1;P1;durP2;ratioP2;P2;SDS_P1;SDS_P2;PMS_P1;PMS_P2;Temp;Humidity;BMP_temperature;BMP_pressure;BME280_temperature;BME280_humidity;BME280_pressure;Samples;Min_cycle;Max_cycle;Signal;HPM_P1;HPM_P2
2022/03/23 00:02:03;;;;;;;16.45;7.45;;;;;;;;;;5094074;28;20115;-83
2022/03/23 00:04:32;;;;;;;14.75;6.03;;;;;;;;;;5091578;28;20044;-83
2022/03/23 00:07:00;;;;;;;14.55;6.60;;;;;;;;;;5091457;28;20126;-83
2022/03/23 00:09:30;;;;;;;16.92;6.35;;;;;;;;;;5089481;28;20070;-83
2022/03/23 00:12:18;;;;;;;16.33;6.60;;;;;;;;;;5085926;28;20148;-83
2022/03/23 00:14:46;;;;;;;16.20;5.80;;;;;;;;;;5095117;28;20068;-83
2022/03/23 00:17:15;;;;;;;16.20;6.13;;;;;;;;;;5090373;28;20055;-83
2022/03/23 00:19:44;;;;;;;18.25;6.75;;;;;;;;;;5086143;28;20044;-83
2022/03/23 00:22:13;;;;;;;19.90;6.63;;;;;;;;;;5088465;28;20036;-83
2022/03/23 00:24:42;;;;;;;15.65;6.25;;;;;;;;;;5089687;28;20048;-83
2022/03/23 00:27:11;;;;;;;16.67;6.60;;;;;;;;;;5091198;28;20082;-83
2022/03/23 00:29:39;;;;;;;17.75;7.00;;;;;;;;;;5083618;28;20087;-83
2022/03/23 00:32:07;;;;;;;15.73;6.47;;;;;;;;;;5088119;28;20134;-81
2022/03/23 00:34:36;;;;;;;16.65;6.18;;;;;;;;;;5092619;28;20075;-82
2022/03/23 00:37:04;;;;;;;15.95;6.90;;;;;;;;;;5094005;28;20058;-82
2022/03/23 00:39:33;;;;;;;12.98;6.63;;;;;;;;;;5092340;28;20529;-82
2022/03/23 00:42:03;;;;;;;17.48;6.38;;;;;;;;;;5090612;28;20048;-82
2022/03/23 00:44:31;;;;;;;18.02;7.28;;;;;;;;;;5096593;28;20044;-82
2022/03/23 00:46:59;;;;;;;21.08;6.38;;;;;;;;;;5090763;28;20079;-81
2022/03/23 00:49:28;;;;;;;16.13;7.30;;;;;;;;;;5085653;28;20383;-82
2022/03/23 00:51:57;;;;;;;13.10;5.95;;;;;;;;;;5091947;28;20097;-82
2022/03/23 00:54:25;;;;;;;12.50;6.03;;;;;;;;;;5085474;28;20237;-82
2022/03/23 00:56:53;;;;;;;15.45;6.68;;;;;;;;;;5082747;28;20075;-81
2022/03/23 00:59:23;;;;;;;14.70;6.25;;;;;;;;;;5088638;28;20127;-82
2022/03/23 01:01:51;;;;;;;17.35;6.80;;;;;;;;;;5089945;28;20044;-81
2022/03/23 01:04:20;;;;;;;23.30;6.97;;;;;;;;;;5089887;28;20082;-81
2022/03/23 01:06:48;;;;;;;15.82;6.88;;;;;;;;;;5089063;28;20119;-82
2022/03/23 01:09:17;;;;;;;13.38;6.15;;;;;;;;;;5088212;28;20389;-82
2022/03/23 01:11:47;;;;;;;15.50;6.75;;;;;;;;;;5087782;28;20040;-81
2022/03/23 01:14:15;;;;;;;22.08;6.68;;;;;;;;;;5087678;28;20077;-82
2022/03/23 01:16:44;;;;;;;14.07;5.90;;;;;;;;;;5092256;28;20098;-82
2022/03/23 01:19:13;;;;;;;13.40;6.10;;;;;;;;;;5079379;28;20048;-81
2022/03/23 01:21:41;;;;;;;14.00;6.28;;;;;;;;;;5080578;28;20125;-82
2022/03/23 01:24:10;;;;;;;13.50;6.15;;;;;;;;;;5077983;28;20055;-81
2022/03/23 01:26:38;;;;;;;18.35;6.25;;;;;;;;;;5081050;28;20523;-81
2022/03/23 01:29:08;;;;;;;13.32;5.95;;;;;;;;;;5080859;28;20551;-81
2022/03/23 01:31:36;;;;;;;17.13;6.75;;;;;;;;;;5092930;28;20092;-81
2022/03/23 01:34:06;;;;;;;18.30;6.25;;;;;;;;;;5088734;28;20075;-82
2022/03/23 01:36:34;;;;;;;14.00;6.10;;;;;;;;;;5091747;28;20302;-82
2022/03/23 01:39:02;;;;;;;17.10;6.15;;;;;;;;;;5081144;28;20102;-82
2022/03/23 01:41:31;;;;;;;15.27;6.68;;;;;;;;;;5085762;28;20183;-81
2022/03/23 01:43:59;;;;;;;15.23;5.65;;;;;;;;;;5076753;28;20481;-82
2022/03/23 01:46:27;;;;;;;13.40;5.97;;;;;;;;;;5082098;28;20555;-81
2022/03/23 01:48:56;;;;;;;12.82;6.28;;;;;;;;;;5086726;28;20161;-82
2022/03/23 01:51:25;;;;;;;12.52;6.15;;;;;;;;;;5087793;28;20075;-82
2022/03/23 01:53:54;;;;;;;12.52;6.13;;;;;;;;;;5086186;28;20116;-81
2022/03/23 01:56:22;;;;;;;13.50;6.35;;;;;;;;;;5085827;28;20119;-81
2022/03/23 01:58:51;;;;;;;15.65;6.57;;;;;;;;;;5080057;28;20112;-81
2022/03/23 02:01:19;;;;;;;15.73;6.70;;;;;;;;;;5075715;28;20044;-81
2022/03/23 02:03:48;;;;;;;14.20;6.05;;;;;;;;;;5085846;28;20047;-81
2022/03/23 02:06:16;;;;;;;20.42;7.72;;;;;;;;;;5087838;28;20072;-82
2022/03/23 02:08:47;;;;;;;13.52;5.85;;;;;;;;;;5099219;28;20060;-81
2022/03/23 02:11:15;;;;;;;16.13;5.88;;;;;;;;;;5088198;28;20071;-81
2022/03/23 02:13:43;;;;;;;10.93;6.32;;;;;;;;;;5098367;28;20117;-81
2022/03/23 02:16:12;;;;;;;11.57;6.25;;;;;;;;;;5097423;28;20452;-82
2022/03/23 02:18:40;;;;;;;14.18;5.90;;;;;;;;;;5097209;28;20055;-81
2022/03/23 02:21:09;;;;;;;15.85;6.20;;;;;;;;;;5098459;28;20055;-81
2022/03/23 02:23:38;;;;;;;13.95;6.00;;;;;;;;;;5090691;28;20048;-81
2022/03/23 02:26:07;;;;;;;10.18;5.50;;;;;;;;;;5098730;28;20142;-81
2022/03/23 02:28:35;;;;;;;12.35;5.22;;;;;;;;;;5090512;28;20107;-81
2022/03/23 02:31:07;;;;;;;14.05;6.32;;;;;;;;;;5101805;28;20083;-81
2022/03/23 02:33:36;;;;;;;16.33;5.80;;;;;;;;;;5095197;28;20040;-81
2022/03/23 02:36:07;;;;;;;9.38;5.10;;;;;;;;;;5093842;28;20132;-81
2022/03/23 02:38:36;;;;;;;11.20;5.60;;;;;;;;;;5088296;28;20379;-81
2022/03/23 02:41:08;;;;;;;13.60;6.03;;;;;;;;;;5092289;28;20499;-81
2022/03/23 02:43:37;;;;;;;12.88;6.07;;;;;;;;;;5085303;28;20532;-81
2022/03/23 02:46:12;;;;;;;12.77;5.82;;;;;;;;;;5095434;28;20052;-81
2022/03/23 02:48:41;;;;;;;14.02;5.57;;;;;;;;;;5093278;28;20130;-81
2022/03/23 02:51:09;;;;;;;10.93;5.82;;;;;;;;;;5088807;28;20135;-81
2022/03/23 03:02:08;;;;;;;;;;;;;;;;;;5051870;28;20079;-82
2022/03/23 03:04:36;;;;;;;12.38;6.20;;;;;;;;;;5088111;28;19924;-81
2022/03/23 03:07:05;;;;;;;11.75;5.93;;;;;;;;;;5092050;28;20100;-81
2022/03/23 03:09:33;;;;;;;18.98;6.20;;;;;;;;;;5089374;28;20094;-81
2022/03/23 03:12:03;;;;;;;12.50;6.10;;;;;;;;;;5084238;28;20072;-81
2022/03/23 03:14:31;;;;;;;14.55;5.70;;;;;;;;;;5086938;28;20048;-81
2022/03/23 03:16:59;;;;;;;11.88;5.47;;;;;;;;;;5090276;28;20138;-81
2022/03/23 03:19:28;;;;;;;12.38;5.78;;;;;;;;;;5085851;28;20044;-81
2022/03/23 03:21:56;;;;;;;15.88;7.13;;;;;;;;;;5079290;28;20127;-81
2022/03/23 03:24:24;;;;;;;13.88;6.47;;;;;;;;;;5091196;28;20044;-81
2022/03/23 03:26:53;;;;;;;14.48;5.97;;;;;;;;;;5083701;28;20067;-81
2022/03/23 03:29:23;;;;;;;14.27;6.15;;;;;;;;;;5078885;28;20060;-81
2022/03/23 03:31:51;;;;;;;9.48;6.13;;;;;;;;;;5079127;28;20067;-82
2022/03/23 03:34:20;;;;;;;14.35;5.70;;;;;;;;;;5084895;28;20052;-82
2022/03/23 03:36:48;;;;;;;12.10;5.90;;;;;;;;;;5085749;28;20127;-81
2022/03/23 03:39:16;;;;;;;12.15;5.45;;;;;;;;;;5087795;28;20052;-81
2022/03/23 03:41:45;;;;;;;15.88;6.05;;;;;;;;;;5090844;28;20439;-82
2022/03/23 03:44:13;;;;;;;14.63;6.22;;;;;;;;;;5083388;28;20054;-82
2022/03/23 03:46:45;;;;;;;15.70;5.75;;;;;;;;;;5089832;28;20150;-82
2022/03/23 03:49:15;;;;;;;11.15;5.97;;;;;;;;;;5085120;28;20539;-82
2022/03/23 03:51:43;;;;;;;14.48;5.63;;;;;;;;;;5084126;28;20109;-82
2022/03/23 03:54:12;;;;;;;13.18;6.13;;;;;;;;;;5085657;28;20546;-82
2022/03/23 03:56:40;;;;;;;16.90;6.93;;;;;;;;;;5089596;28;20139;-82
2022/03/23 03:59:08;;;;;;;11.02;5.65;;;;;;;;;;5082325;28;20159;-82
2022/03/23 04:01:37;;;;;;;8.85;5.20;;;;;;;;;;5087634;28;20410;-82
2022/03/23 04:04:07;;;;;;;11.50;5.50;;;;;;;;;;5074122;28;20097;-82
2022/03/23 04:06:35;;;;;;;14.38;6.45;;;;;;;;;;5084065;28;20514;-82
2022/03/23 04:09:03;;;;;;;11.40;5.50;;;;;;;;;;5083512;28;20448;-82
2022/03/23 04:11:32;;;;;;;13.60;6.47;;;;;;;;;;5089648;28;20050;-82
2022/03/23 04:14:00;;;;;;;14.82;5.75;;;;;;;;;;5088954;28;20056;-82
2022/03/23 04:16:28;;;;;;;11.93;5.55;;;;;;;;;;5086007;28;20068;-82
2022/03/23 04:18:57;;;;;;;14.35;5.97;;;;;;;;;;5090027;28;20682;-82
2022/03/23 04:21:26;;;;;;;17.05;6.25;;;;;;;;;;5079790;28;20121;-82
2022/03/23 04:23:55;;;;;;;13.65;6.05;;;;;;;;;;5084479;28;20044;-82
2022/03/23 04:26:23;;;;;;;11.60;5.13;;;;;;;;;;5084920;28;20448;-82
2022/03/23 04:28:51;;;;;;;10.30;5.65;;;;;;;;;;5089029;28;20495;-82
2022/03/23 04:31:20;;;;;;;12.75;5.60;;;;;;;;;;5086498;28;20044;-81
2022/03/23 04:33:49;;;;;;;16.35;6.20;;;;;;;;;;5085419;28;20486;-82
2022/03/23 04:36:17;;;;;;;15.98;5.70;;;;;;;;;;5084954;28;20140;-82
2022/03/23 04:38:47;;;;;;;11.00;5.80;;;;;;;;;;5083826;28;20044;-81
2022/03/23 04:41:15;;;;;;;12.52;5.18;;;;;;;;;;5086578;28;20044;-82
2022/03/23 04:43:44;;;;;;;12.00;6.07;;;;;;;;;;5077713;28;20552;-82
2022/03/23 04:46:12;;;;;;;16.35;6.00;;;;;;;;;;5078474;28;20087;-82
2022/03/23 04:48:41;;;;;;;12.60;5.65;;;;;;;;;;5083177;28;20040;-81
2022/03/23 04:51:09;;;;;;;11.40;5.35;;;;;;;;;;5084557;28;20468;-82
2022/03/23 04:53:37;;;;;;;13.38;5.05;;;;;;;;;;5085980;28;20126;-82
2022/03/23 04:56:11;;;;;;;12.43;5.28;;;;;;;;;;5089042;28;20040;-82
2022/03/23 04:58:42;;;;;;;9.75;5.05;;;;;;;;;;5087152;28;20563;-82
2022/03/23 05:01:11;;;;;;;10.98;5.28;;;;;;;;;;5081677;28;20044;-81
2022/03/23 05:03:39;;;;;;;14.20;5.47;;;;;;;;;;5090280;28;20488;-82
2022/03/23 05:06:08;;;;;;;10.95;4.80;;;;;;;;;;5077932;28;20076;-82
2022/03/23 05:08:37;;;;;;;9.80;5.30;;;;;;;;;;5098309;28;20123;-82
2022/03/23 05:11:08;;;;;;;13.70;5.00;;;;;;;;;;5086815;28;20044;-81
2022/03/23 05:13:37;;;;;;;12.70;5.00;;;;;;;;;;5085422;28;20154;-82
2022/03/23 05:16:09;;;;;;;12.30;5.65;;;;;;;;;;5086927;28;20040;-82
2022/03/23 05:18:38;;;;;;;11.13;4.70;;;;;;;;;;5086744;28;20083;-80
2022/03/23 05:21:07;;;;;;;11.15;5.45;;;;;;;;;;5087467;28;20078;-81
2022/03/23 05:23:35;;;;;;;15.63;5.20;;;;;;;;;;5086484;28;20490;-80
2022/03/23 05:26:07;;;;;;;12.15;5.13;;;;;;;;;;5084320;28;20493;-80
2022/03/23 05:28:39;;;;;;;19.52;5.47;;;;;;;;;;5088553;28;20080;-80
2022/03/23 05:31:07;;;;;;;13.27;6.13;;;;;;;;;;5076760;28;20455;-79
2022/03/23 05:33:36;;;;;;;15.98;6.00;;;;;;;;;;5075876;28;20056;-79
2022/03/23 05:36:06;;;;;;;12.60;5.35;;;;;;;;;;5084112;28;20083;-80
2022/03/23 05:38:34;;;;;;;14.27;5.63;;;;;;;;;;5093315;28;20154;-81
2022/03/23 05:41:07;;;;;;;15.57;5.47;;;;;;;;;;5081725;28;20538;-81
2022/03/23 05:43:35;;;;;;;11.13;5.75;;;;;;;;;;5085036;28;20469;-81
2022/03/23 05:46:07;;;;;;;11.30;5.40;;;;;;;;;;5079974;28;20131;-81
2022/03/23 05:48:35;;;;;;;14.65;6.00;;;;;;;;;;5079877;28;20075;-81
2022/03/23 05:51:08;;;;;;;19.38;5.88;;;;;;;;;;5083763;28;20528;-81
2022/03/23 05:53:37;;;;;;;15.30;5.53;;;;;;;;;;5083202;28;20434;-82
2022/03/23 05:56:08;;;;;;;10.65;5.78;;;;;;;;;;5075512;28;20040;-81
2022/03/23 05:58:36;;;;;;;13.50;5.20;;;;;;;;;;5095996;28;20127;-81
2022/03/23 06:01:09;;;;;;;15.63;5.70;;;;;;;;;;5074231;28;20155;-81
2022/03/23 06:03:38;;;;;;;12.05;5.55;;;;;;;;;;5078689;28;20051;-81
2022/03/23 06:06:09;;;;;;;10.60;4.97;;;;;;;;;;5082310;28;20056;-81
2022/03/23 06:08:38;;;;;;;14.02;4.72;;;;;;;;;;5081204;28;20144;-83
2022/03/23 06:11:06;;;;;;;12.15;5.45;;;;;;;;;;5076500;28;20047;-80
2022/03/23 06:13:34;;;;;;;13.75;5.05;;;;;;;;;;5075928;28;20127;-80
2022/03/23 06:16:06;;;;;;;11.90;5.38;;;;;;;;;;5078538;28;20047;-80
2022/03/23 06:18:36;;;;;;;12.07;5.32;;;;;;;;;;5078568;28;20071;-82
2022/03/23 06:21:08;;;;;;;11.05;5.13;;;;;;;;;;5078762;28;20083;-82
2022/03/23 06:23:36;;;;;;;16.88;5.63;;;;;;;;;;5079991;28;20044;-82
2022/03/23 06:26:08;;;;;;;16.00;5.28;;;;;;;;;;5082077;28;20100;-80
2022/03/23 06:28:36;;;;;;;11.57;5.05;;;;;;;;;;5082467;28;20141;-81
2022/03/23 06:31:08;;;;;;;24.45;6.70;;;;;;;;;;5078072;28;20044;-81
2022/03/23 06:33:38;;;;;;;9.77;5.35;;;;;;;;;;5077671;28;20047;-82
2022/03/23 06:36:07;;;;;;;11.88;6.15;;;;;;;;;;5077567;28;20072;-80
2022/03/23 06:38:35;;;;;;;10.27;5.88;;;;;;;;;;5094853;28;20131;-79
2022/03/23 06:41:06;;;;;;;17.35;5.80;;;;;;;;;;5076595;28;20079;-79
2022/03/23 06:43:34;;;;;;;18.20;6.63;;;;;;;;;;5076193;28;20105;-79
2022/03/23 06:46:05;;;;;;;17.05;6.20;;;;;;;;;;5077213;28;20083;-79
2022/03/23 06:48:33;;;;;;;20.33;6.82;;;;;;;;;;5078033;28;20048;-79
2022/03/23 06:51:05;;;;;;;15.60;6.38;;;;;;;;;;5086043;28;20052;-79
2022/03/23 06:53:34;;;;;;;14.77;6.28;;;;;;;;;;5079705;28;20044;-79
2022/03/23 06:56:02;;;;;;;13.68;6.30;;;;;;;;;;5081305;28;20108;-79
2022/03/23 06:58:36;;;;;;;24.50;6.82;;;;;;;;;;5074256;28;20040;-79
2022/03/23 07:01:07;;;;;;;16.20;6.68;;;;;;;;;;5080450;28;20087;-79
2022/03/23 07:03:36;;;;;;;25.02;6.63;;;;;;;;;;5084191;28;20048;-79
2022/03/23 07:06:08;;;;;;;15.90;6.32;;;;;;;;;;5089605;28;20060;-79
2022/03/23 07:11:23;;;;;;;22.13;6.80;;;;;;;;;;5087735;28;20040;-79
2022/03/23 07:13:51;;;;;;;14.40;6.57;;;;;;;;;;5082808;28;20131;-80
2022/03/23 07:16:22;;;;;;;13.48;6.15;;;;;;;;;;5089169;28;20135;-79
2022/03/23 07:18:50;;;;;;;16.90;7.38;;;;;;;;;;5086198;28;20070;-79
2022/03/23 07:21:20;;;;;;;16.75;7.15;;;;;;;;;;5087662;28;20044;-77
2022/03/23 07:23:49;;;;;;;19.48;7.10;;;;;;;;;;5089930;28;20123;-78
2022/03/23 07:26:18;;;;;;;16.10;6.60;;;;;;;;;;5084495;28;20069;-80
2022/03/23 07:28:47;;;;;;;12.52;6.82;;;;;;;;;;5090120;28;20109;-80
2022/03/23 07:31:15;;;;;;;16.13;7.60;;;;;;;;;;5085388;28;20052;-80
2022/03/23 07:33:44;;;;;;;20.90;7.00;;;;;;;;;;5090854;28;20048;-80
2022/03/23 07:36:12;;;;;;;14.63;6.65;;;;;;;;;;5085739;28;20076;-80
2022/03/23 07:38:42;;;;;;;14.00;6.85;;;;;;;;;;5082676;28;20463;-80
2022/03/23 07:41:11;;;;;;;19.83;6.95;;;;;;;;;;5092075;28;20040;-80
2022/03/23 07:43:40;;;;;;;14.60;7.30;;;;;;;;;;5093958;28;20063;-80
2022/03/23 07:46:08;;;;;;;19.35;6.40;;;;;;;;;;5087963;28;20158;-80
2022/03/23 07:48:37;;;;;;;14.27;7.38;;;;;;;;;;5092125;28;20047;-80
2022/03/23 07:51:09;;;;;;;15.82;7.43;;;;;;;;;;5101879;28;20048;-80
2022/03/23 07:53:37;;;;;;;16.52;7.45;;;;;;;;;;5093223;28;20052;-80
2022/03/23 07:56:10;;;;;;;16.20;7.93;;;;;;;;;;5093196;28;20453;-80
2022/03/23 07:58:38;;;;;;;15.20;7.30;;;;;;;;;;5084919;28;20712;-86
2022/03/23 08:01:07;;;;;;;18.40;7.40;;;;;;;;;;5089870;28;20052;-85
2022/03/23 08:03:36;;;;;;;16.23;6.90;;;;;;;;;;5085994;28;20452;-85
2022/03/23 08:06:07;;;;;;;14.70;7.43;;;;;;;;;;5095103;28;20351;-85
2022/03/23 08:08:35;;;;;;;16.08;7.85;;;;;;;;;;5084631;28;20045;-85
2022/03/23 08:11:07;;;;;;;19.50;8.07;;;;;;;;;;5093589;28;20048;-83
2022/03/23 08:13:37;;;;;;;14.55;7.57;;;;;;;;;;5092544;28;20047;-83
2022/03/23 08:16:10;;;;;;;17.67;7.63;;;;;;;;;;5088530;28;20071;-83
2022/03/23 08:18:38;;;;;;;15.15;7.93;;;;;;;;;;5094628;28;20214;-84
2022/03/23 08:21:07;;;;;;;18.73;8.23;;;;;;;;;;5090379;28;20559;-83
2022/03/23 08:23:35;;;;;;;18.48;7.82;;;;;;;;;;5093353;28;20154;-84
2022/03/23 08:26:09;;;;;;;17.15;7.90;;;;;;;;;;5077902;28;20052;-83
2022/03/23 08:28:39;;;;;;;18.92;8.23;;;;;;;;;;5090484;28;20113;-83
2022/03/23 08:31:08;;;;;;;17.38;7.93;;;;;;;;;;5091097;28;20052;-83
2022/03/23 08:33:36;;;;;;;18.00;8.23;;;;;;;;;;5092463;28;20052;-84
2022/03/23 08:36:08;;;;;;;18.30;8.57;;;;;;;;;;5094124;28;20079;-83
2022/03/23 08:38:38;;;;;;;19.65;8.77;;;;;;;;;;5090564;28;20048;-83
2022/03/23 08:41:09;;;;;;;24.05;8.40;;;;;;;;;;5098334;28;20048;-83
2022/03/23 08:43:38;;;;;;;15.55;8.23;;;;;;;;;;5089970;28;20138;-83
2022/03/23 08:46:13;;;;;;;22.00;8.93;;;;;;;;;;5104164;28;20077;-85
2022/03/23 08:48:42;;;;;;;20.25;9.07;;;;;;;;;;5090936;28;20060;-84
2022/03/23 08:51:11;;;;;;;15.60;9.02;;;;;;;;;;5090649;28;20091;-84
2022/03/23 08:53:42;;;;;;;21.73;9.00;;;;;;;;;;5093901;28;20048;-83
2022/03/23 08:56:11;;;;;;;18.83;8.45;;;;;;;;;;5092198;28;20048;-83
2022/03/23 08:58:47;;;;;;;17.17;8.98;;;;;;;;;;5087777;28;20508;-83
2022/03/23 09:01:17;;;;;;;24.33;8.82;;;;;;;;;;5083354;28;20051;-84
2022/03/23 09:03:46;;;;;;;18.55;9.05;;;;;;;;;;5075544;28;20459;-84
2022/03/23 09:06:15;;;;;;;21.17;8.90;;;;;;;;;;5078945;28;20116;-84
2022/03/23 09:08:43;;;;;;;16.85;8.68;;;;;;;;;;5092947;28;20138;-84
2022/03/23 09:11:12;;;;;;;18.02;8.68;;;;;;;;;;5084076;28;20056;-84
2022/03/23 09:13:42;;;;;;;17.33;8.95;;;;;;;;;;5082844;28;20545;-84
2022/03/23 09:16:11;;;;;;;15.63;8.23;;;;;;;;;;5097787;28;20047;-84
2022/03/23 09:18:41;;;;;;;17.20;8.70;;;;;;;;;;5092158;28;20047;-84
2022/03/23 09:21:10;;;;;;;19.45;8.80;;;;;;;;;;5090449;28;20044;-84
2022/03/23 09:23:38;;;;;;;19.55;9.25;;;;;;;;;;5090493;28;20136;-83
2022/03/23 09:26:09;;;;;;;14.55;8.85;;;;;;;;;;5074187;28;20049;-84
2022/03/23 09:28:38;;;;;;;16.15;9.10;;;;;;;;;;5085965;28;20055;-84
2022/03/23 09:31:09;;;;;;;17.20;9.40;;;;;;;;;;5085583;28;20051;-84
2022/03/23 09:33:39;;;;;;;19.02;9.00;;;;;;;;;;5088739;28;20135;-84
2022/03/23 09:37:47;;;;;;;19.17;9.35;;;;;;;;;;5085792;28;20047;-84
2022/03/23 09:39:10;;;;;;;16.95;8.93;;;;;;;;;;5084777;28;20071;-84
2022/03/23 09:41:39;;;;;;;17.30;9.02;;;;;;;;;;5087659;28;20052;-84
2022/03/23 09:44:08;;;;;;;15.82;9.18;;;;;;;;;;5090220;28;20093;-84
2022/03/23 09:46:37;;;;;;;17.45;10.13;;;;;;;;;;5084473;28;20062;-84
2022/03/23 09:49:06;;;;;;;15.40;9.27;;;;;;;;;;5089726;28;20139;-84
2022/03/23 09:51:37;;;;;;;18.02;9.63;;;;;;;;;;5077436;28;20056;-84
2022/03/23 09:54:07;;;;;;;22.25;10.07;;;;;;;;;;5074446;28;20520;-84
2022/03/23 09:56:36;;;;;;;18.27;10.15;;;;;;;;;;5080047;28;20054;-84
2022/03/23 09:59:06;;;;;;;15.07;8.95;;;;;;;;;;5089151;28;20052;-84
2022/03/23 10:01:56;;;;;;;15.77;9.40;;;;;;;;;;5085727;28;20082;-84
2022/03/23 10:04:42;;;;;;;18.33;9.88;;;;;;;;;;5038927;28;20044;-85
2022/03/23 10:07:17;;;;;;;18.75;10.38;;;;;;;;;;5059270;28;20103;-83
2022/03/23 10:10:13;;;;;;;16.52;8.90;;;;;;;;;;5086970;28;20048;-82
2022/03/23 10:13:00;;;;;;;18.95;9.55;;;;;;;;;;5079754;28;20135;-82
2022/03/23 10:15:48;;;;;;;18.70;10.73;;;;;;;;;;5087678;28;20075;-83
2022/03/23 10:18:35;;;;;;;16.73;9.23;;;;;;;;;;5077432;28;20047;-83
2022/03/23 10:21:07;;;;;;;14.23;8.25;;;;;;;;;;5066122;28;20051;-83
2022/03/23 10:23:37;;;;;;;17.13;8.93;;;;;;;;;;5089574;28;20476;-83
2022/03/23 10:26:13;;;;;;;17.83;8.70;;;;;;;;;;5089399;28;20112;-84
2022/03/23 10:28:42;;;;;;;14.98;9.48;;;;;;;;;;5090915;28;20048;-83
2022/03/23 10:31:17;;;;;;;13.63;8.23;;;;;;;;;;5089357;28;20072;-83
2022/03/23 10:33:58;;;;;;;21.38;9.98;;;;;;;;;;5087640;28;20060;-83
2022/03/23 10:36:30;;;;;;;15.77;9.75;;;;;;;;;;5086722;28;20131;-84
2022/03/23 10:39:02;;;;;;;19.25;9.13;;;;;;;;;;5091843;28;20052;-83
2022/03/23 10:41:31;;;;;;;18.58;10.23;;;;;;;;;;5094619;28;20087;-83
2022/03/23 10:44:00;;;;;;;17.60;10.10;;;;;;;;;;5090148;28;20045;-83
2022/03/23 10:46:28;;;;;;;20.30;10.38;;;;;;;;;;5092358;28;20464;-83
2022/03/23 10:49:01;;;;;;;18.48;10.43;;;;;;;;;;5091258;28;20142;-83
2022/03/23 10:51:31;;;;;;;20.90;9.73;;;;;;;;;;5081873;28;20048;-83
2022/03/23 10:54:14;;;;;;;17.35;9.50;;;;;;;;;;5084009;28;20458;-84
2022/03/23 10:56:43;;;;;;;22.00;10.07;;;;;;;;;;5086023;28;20040;-83
2022/03/23 10:59:22;;;;;;;17.38;9.82;;;;;;;;;;5085694;28;20044;-83
2022/03/23 11:01:59;;;;;;;15.50;8.75;;;;;;;;;;5084657;28;20105;-83
2022/03/23 11:04:30;;;;;;;14.77;9.50;;;;;;;;;;5094207;28;20048;-83
2022/03/23 11:06:59;;;;;;;14.23;8.98;;;;;;;;;;5093850;28;20122;-84
2022/03/23 11:18:06;;;;;;;16.65;10.05;;;;;;;;;;5093162;28;20052;-84
2022/03/23 11:20:43;;;;;;;17.85;10.13;;;;;;;;;;5092532;28;20097;-83
2022/03/23 11:23:19;;;;;;;20.15;10.05;;;;;;;;;;5094352;28;20055;-83
2022/03/23 11:25:49;;;;;;;16.38;9.65;;;;;;;;;;5095212;28;20049;-84
2022/03/23 11:28:19;;;;;;;23.63;10.70;;;;;;;;;;5096925;28;20128;-83
2022/03/23 11:30:47;;;;;;;18.65;10.73;;;;;;;;;;5107452;28;20048;-83
2022/03/23 11:33:17;;;;;;;17.38;9.73;;;;;;;;;;5100740;28;20941;-82
2022/03/23 11:35:49;;;;;;;18.73;10.35;;;;;;;;;;5100144;28;20058;-83
2022/03/23 11:38:18;;;;;;;18.92;10.35;;;;;;;;;;5086750;28;20534;-82
2022/03/23 11:40:49;;;;;;;16.48;10.10;;;;;;;;;;5103210;28;20075;-84
2022/03/23 11:43:19;;;;;;;14.32;9.43;;;;;;;;;;5097758;28;20048;-83
2022/03/23 11:46:08;;;;;;;14.07;8.98;;;;;;;;;;5097019;28;20074;-84
2022/03/23 11:48:46;;;;;;;18.70;10.30;;;;;;;;;;5080016;28;20345;-83
2022/03/23 11:51:22;;;;;;;15.45;9.82;;;;;;;;;;5088122;28;20051;-83
2022/03/23 11:53:57;;;;;;;15.27;9.23;;;;;;;;;;5091604;28;20082;-83
2022/03/23 11:56:28;;;;;;;18.30;9.75;;;;;;;;;;5085739;28;20131;-83
2022/03/23 11:58:56;;;;;;;15.80;9.05;;;;;;;;;;5083558;28;20052;-84
2022/03/23 12:01:31;;;;;;;20.30;10.13;;;;;;;;;;5087066;28;20078;-83
2022/03/23 12:04:04;;;;;;;15.75;9.48;;;;;;;;;;5085645;28;20043;-83
2022/03/23 12:06:39;;;;;;;16.30;8.98;;;;;;;;;;5089257;28;20111;-83
2022/03/23 12:09:08;;;;;;;15.85;9.10;;;;;;;;;;5090317;28;20462;-83
2022/03/23 12:11:50;;;;;;;15.07;9.40;;;;;;;;;;5086091;28;20059;-82
2022/03/23 12:14:26;;;;;;;13.90;8.73;;;;;;;;;;5085892;28;20040;-83
2022/03/23 12:17:02;;;;;;;13.25;8.00;;;;;;;;;;5083183;28;20047;-83
2022/03/23 12:19:58;;;;;;;12.80;7.75;;;;;;;;;;5091721;28;20040;-83
2022/03/23 12:22:57;;;;;;;11.60;7.25;;;;;;;;;;5088576;28;20052;-83
2022/03/23 12:25:28;;;;;;;12.90;6.95;;;;;;;;;;5093034;28;20474;-83
2022/03/23 12:28:04;;;;;;;12.70;8.13;;;;;;;;;;5086929;28;20044;-84
2022/03/23 12:30:36;;;;;;;11.45;7.65;;;;;;;;;;5091324;28;20121;-83
2022/03/23 12:33:10;;;;;;;14.02;8.48;;;;;;;;;;5090337;28;20047;-84
2022/03/23 12:35:39;;;;;;;14.38;8.45;;;;;;;;;;5087091;28;20040;-83
2022/03/23 12:38:18;;;;;;;15.23;8.35;;;;;;;;;;5078095;28;20051;-82
2022/03/23 12:40:47;;;;;;;15.40;8.38;;;;;;;;;;5087366;28;20058;-83
2022/03/23 12:43:36;;;;;;;14.55;8.52;;;;;;;;;;5087725;28;20295;-83
2022/03/23 12:46:18;;;;;;;14.32;8.82;;;;;;;;;;5097847;28;20058;-84
2022/03/23 13:00:28;;;;;;;14.82;8.93;;;;;;;;;;5089785;28;20052;-82
2022/03/23 13:03:18;;;;;;;18.83;9.20;;;;;;;;;;5089672;28;20441;-84
2022/03/23 13:06:01;;;;;;;14.80;9.48;;;;;;;;;;5085418;28;20049;-83
2022/03/23 13:08:38;;;;;;;13.57;8.55;;;;;;;;;;5091366;28;20043;-83
2022/03/23 13:11:09;;;;;;;16.02;8.82;;;;;;;;;;5087960;28;20484;-83
2022/03/23 13:13:39;;;;;;;15.27;8.65;;;;;;;;;;5091636;28;20071;-83
2022/03/23 13:16:11;;;;;;;13.27;7.88;;;;;;;;;;5086738;28;20507;-83
2022/03/23 13:18:41;;;;;;;14.07;8.63;;;;;;;;;;5079048;28;20050;-83
2022/03/23 13:21:11;;;;;;;17.35;9.50;;;;;;;;;;5094601;28;20052;-83
2022/03/23 13:23:43;;;;;;;15.95;8.82;;;;;;;;;;5091010;28;20048;-84
2022/03/23 13:26:12;;;;;;;13.23;7.57;;;;;;;;;;5094632;28;20052;-83
2022/03/23 13:28:41;;;;;;;16.42;7.60;;;;;;;;;;5086992;28;20074;-83
2022/03/23 13:31:12;;;;;;;15.07;9.23;;;;;;;;;;5088151;28;20057;-82
2022/03/23 13:33:44;;;;;;;17.77;9.77;;;;;;;;;;5093740;28;20384;-83
2022/03/23 13:36:15;;;;;;;16.55;10.68;;;;;;;;;;5090613;28;20052;-83
2022/03/23 13:38:45;;;;;;;15.82;8.93;;;;;;;;;;5089330;28;20040;-82
2022/03/23 13:44:01;;;;;;;16.38;9.85;;;;;;;;;;5080857;28;20072;-82
2022/03/23 13:46:31;;;;;;;14.45;8.95;;;;;;;;;;5094718;28;20123;-83
2022/03/23 13:49:01;;;;;;;14.35;8.90;;;;;;;;;;5084889;28;20044;-82
2022/03/23 13:51:31;;;;;;;15.85;8.70;;;;;;;;;;5079517;28;20106;-83
2022/03/23 13:54:01;;;;;;;15.55;8.88;;;;;;;;;;5092091;28;20048;-83
2022/03/23 13:56:31;;;;;;;16.17;8.65;;;;;;;;;;5097147;28;20168;-82
2022/03/23 13:59:01;;;;;;;15.70;8.95;;;;;;;;;;5100191;28;20077;-82
2022/03/23 14:01:30;;;;;;;15.38;9.63;;;;;;;;;;5090309;28;20802;-84
2022/03/23 14:04:04;;;;;;;17.27;8.98;;;;;;;;;;5092079;28;20852;-82
2022/03/23 14:06:43;;;;;;;20.25;10.20;;;;;;;;;;5089961;28;20130;-82
2022/03/23 14:09:12;;;;;;;16.10;9.18;;;;;;;;;;5093078;28;20079;-82
2022/03/23 14:12:01;;;;;;;16.67;9.18;;;;;;;;;;5089433;28;20504;-82
2022/03/23 14:14:31;;;;;;;16.02;9.90;;;;;;;;;;5094054;28;20125;-83
2022/03/23 14:17:01;;;;;;;16.73;10.25;;;;;;;;;;5083599;28;20044;-82
2022/03/23 14:19:34;;;;;;;16.90;9.35;;;;;;;;;;5084480;28;20100;-82
2022/03/23 14:22:04;;;;;;;16.67;10.32;;;;;;;;;;5089631;28;20075;-82
2022/03/23 14:24:34;;;;;;;16.40;9.23;;;;;;;;;;5080066;28;20077;-82
2022/03/23 14:27:16;;;;;;;17.25;10.43;;;;;;;;;;5088611;28;20044;-82
2022/03/23 14:30:04;;;;;;;16.27;9.40;;;;;;;;;;5098772;28;20116;-83
2022/03/23 14:32:34;;;;;;;15.32;9.32;;;;;;;;;;5098788;28;20047;-82
2022/03/23 14:35:04;;;;;;;17.25;9.25;;;;;;;;;;5092237;28;20047;-82
2022/03/23 14:37:37;;;;;;;14.25;9.23;;;;;;;;;;5090965;28;20040;-82
2022/03/23 14:40:20;;;;;;;15.75;9.15;;;;;;;;;;5098870;28;20055;-82
2022/03/23 14:42:48;;;;;;;15.45;9.70;;;;;;;;;;5084026;28;20048;-82
2022/03/23 14:45:31;;;;;;;13.98;8.65;;;;;;;;;;5093528;28;20040;-83
2022/03/23 14:48:16;;;;;;;14.18;8.52;;;;;;;;;;5092860;28;20107;-82
2022/03/23 14:50:47;;;;;;;14.73;8.57;;;;;;;;;;5091413;28;20074;-82
2022/03/23 14:53:16;;;;;;;15.60;8.68;;;;;;;;;;5083174;28;20055;-82
2022/03/23 14:55:44;;;;;;;13.90;7.60;;;;;;;;;;5079398;28;20048;-82
2022/03/23 14:58:26;;;;;;;15.35;8.38;;;;;;;;;;5086710;28;20044;-82
2022/03/23 15:00:58;;;;;;;11.52;7.75;;;;;;;;;;5093064;28;20048;-83
2022/03/23 15:03:27;;;;;;;14.10;7.15;;;;;;;;;;5085787;28;20044;-82
2022/03/23 15:14:16;;;;;;;11.13;7.13;;;;;;;;;;5092783;28;20054;-83
2022/03/23 15:16:47;;;;;;;12.55;6.80;;;;;;;;;;5094427;28;20044;-82
2022/03/23 15:19:16;;;;;;;13.60;6.72;;;;;;;;;;5091331;28;20048;-84
2022/03/23 15:21:47;;;;;;;16.67;7.82;;;;;;;;;;5085081;28;20086;-83
2022/03/23 15:24:16;;;;;;;10.98;6.72;;;;;;;;;;5092570;28;20043;-83
2022/03/23 15:26:45;;;;;;;13.85;7.90;;;;;;;;;;5088272;28;20044;-83
2022/03/23 15:29:14;;;;;;;13.25;7.32;;;;;;;;;;5092472;28;20113;-83
2022/03/23 15:31:42;;;;;;;13.13;7.55;;;;;;;;;;5095730;28;20607;-83
2022/03/23 15:34:11;;;;;;;11.55;7.13;;;;;;;;;;5089393;28;20101;-83